KLXN

Details ICAO KLXN
Name JIM KELLY FLD
Region United States
Timezone America/Chicago (UTC-5.0)
Plans Departing 1
Arriving 3
Stats Elevation 2,413 ft / 735 m (AMSL)
Location 40.790073° -99.775502°
Runways 2
Magnetic Variation 5.170° E
Sunrise 2018-05-20 11:18:49 UTC / 2018-05-20 06:18:49 Local
Sunset 2018-05-21 01:55:19 UTC / 2018-05-20 20:55:19 Local
Advertisement - Login to hide

Runways

ID Width Length Bearing (true) Bearing (mag) Surface Threshold Offset Overrun Length
01 207 ft / 63 m 3,115 ft / 949 m 20.40° 15.23° Grass 0 ft / 0 m 0 ft / 0 m
14 98 ft / 30 m 5,505 ft / 1,678 m 143.20° 138.03° Concrete 0 ft / 0 m 0 ft / 0 m
19 207 ft / 63 m 3,115 ft / 949 m 200.41° 195.24° Grass 0 ft / 0 m 0 ft / 0 m
32 98 ft / 30 m 5,505 ft / 1,678 m 323.20° 318.03° Concrete 0 ft / 0 m 0 ft / 0 m

Map

Weather


0- 5 10 15 20 25 30 35+ Temperature / ° C

Clouds and Precipitation
Forecast for 2018-05-21 06:00 UTC. Updated 21 minutes ago

Ground ~20,000 ft ~40,000 ft Winds

METAR

KLXN 210535Z AUTO 10003KT 1 1/4SM BR VV007 09/09 A3011 RMK AO2 T00910086

TAF

Not found

Frequencies

Recorded 121.02 MHz AWOS 3
Unicom 123.00 MHz CTAF/UNICOM
Warning: Do not use this data for real-world aviation or navigation. No guarantee of current accuracy is given.